Time;durP1;ratioP1;P1;durP2;ratioP2;P2;SDS_P1;SDS_P2;PMS_P1;PMS_P2;Temp;Humidity;BMP_temperature;BMP_pressure;BME280_temperature;BME280_humidity;BME280_pressure;Samples;Min_cycle;Max_cycle;Signal;HPM_P1;HPM_P2
2022/09/22 00:00:56;;;;;;;0.20;0.20;;;9.50;99.90;;;;;;5031153;28;21117;-80
2022/09/22 00:03:21;;;;;;;0.10;0.10;;;9.50;99.90;;;;;;5031004;28;20557;-80
2022/09/22 00:05:47;;;;;;;0.10;0.10;;;9.40;99.90;;;;;;5029028;28;20214;-80
2022/09/22 00:08:12;;;;;;;0.10;0.10;;;9.40;99.90;;;;;;5030522;28;20196;-80
2022/09/22 00:10:38;;;;;;;0.10;0.10;;;9.30;99.90;;;;;;5030833;28;20283;-80
2022/09/22 00:13:04;;;;;;;0.10;0.10;;;9.20;99.90;;;;;;5028612;28;20193;-80
2022/09/22 00:15:30;;;;;;;0.10;0.10;;;9.20;99.90;;;;;;5030747;28;20582;-80
2022/09/22 00:17:55;;;;;;;0.10;0.10;;;9.20;99.90;;;;;;5030031;28;20183;-80
2022/09/22 00:20:21;;;;;;;0.10;0.10;;;9.30;99.90;;;;;;5029441;28;20266;-80
2022/09/22 00:22:50;;;;;;;0.10;0.10;;;9.30;99.90;;;;;;5032288;28;20193;-80
2022/09/22 00:25:16;;;;;;;0.10;0.10;;;9.30;99.90;;;;;;5030794;28;20237;-80
2022/09/22 00:27:42;;;;;;;0.20;0.20;;;9.30;99.90;;;;;;5032095;28;20782;-80
2022/09/22 00:30:08;;;;;;;0.10;0.10;;;9.30;99.90;;;;;;5032620;28;20279;-80
2022/09/22 00:32:38;;;;;;;0.10;0.10;;;9.30;99.90;;;;;;5030269;28;20189;-80
2022/09/22 00:35:04;;;;;;;0.33;0.20;;;9.30;99.90;;;;;;5030552;28;20207;-80
2022/09/22 00:37:30;;;;;;;0.20;0.20;;;9.30;99.90;;;;;;5030226;28;20190;-80
2022/09/22 00:39:56;;;;;;;0.10;0.10;;;9.30;99.90;;;;;;5032587;28;20189;-80
2022/09/22 00:42:22;;;;;;;0.10;0.10;;;9.20;99.90;;;;;;5031359;28;20194;-80
2022/09/22 00:44:48;;;;;;;0.43;0.43;;;9.20;99.90;;;;;;5032637;28;20205;-80
2022/09/22 00:47:36;;;;;;;0.40;0.40;;;9.20;99.90;;;;;;5028642;28;21241;-80
2022/09/22 00:50:21;;;;;;;0.10;0.10;;;9.20;99.90;;;;;;5029741;28;20685;-80
2022/09/22 00:52:54;;;;;;;0.30;0.30;;;9.20;99.90;;;;;;5032119;28;20273;-80
2022/09/22 00:55:22;;;;;;;0.20;0.20;;;9.10;99.90;;;;;;5030806;28;20214;-80
2022/09/22 00:57:50;;;;;;;0.10;0.10;;;9.10;99.90;;;;;;5021836;28;20460;-80
2022/09/22 01:00:16;;;;;;;0.10;0.10;;;9.00;99.90;;;;;;5028910;28;20205;-80
2022/09/22 01:02:49;;;;;;;1.70;0.93;;;9.00;99.90;;;;;;5025395;28;20188;-80
2022/09/22 01:05:14;;;;;;;0.10;0.10;;;8.90;99.90;;;;;;5024527;28;20209;-79
2022/09/22 01:07:41;;;;;;;0.10;0.10;;;8.90;99.90;;;;;;5026717;28;20249;-80
2022/09/22 01:10:08;;;;;;;0.10;0.10;;;8.90;99.90;;;;;;5028053;28;20342;-80
2022/09/22 01:12:35;;;;;;;0.10;0.10;;;8.70;99.90;;;;;;5023387;28;20664;-80
2022/09/22 01:15:18;;;;;;;0.40;0.40;;;8.70;99.90;;;;;;5024956;28;21165;-80
2022/09/22 01:18:09;;;;;;;0.10;0.10;;;8.60;99.90;;;;;;5026009;28;20567;-80
2022/09/22 01:21:14;;;;;;;0.00;0.00;;;8.50;99.90;;;;;;5029072;28;20187;-80
2022/09/22 01:24:01;;;;;;;0.10;0.10;;;8.40;99.90;;;;;;5015221;28;20192;-80
2022/09/22 01:26:35;;;;;;;0.20;0.20;;;8.40;99.90;;;;;;5027668;28;20565;-80
2022/09/22 01:29:26;;;;;;;0.20;0.20;;;8.40;99.90;;;;;;5020111;28;20184;-80
2022/09/22 01:31:58;;;;;;;0.40;0.40;;;8.40;99.90;;;;;;5026290;28;20273;-80
2022/09/22 01:34:51;;;;;;;0.43;0.30;;;8.40;99.90;;;;;;5025326;28;20221;-80
2022/09/22 01:37:33;;;;;;;0.10;0.10;;;8.40;99.90;;;;;;5027045;28;21051;-80
2022/09/22 01:40:14;;;;;;;0.30;0.30;;;8.30;99.90;;;;;;5027110;28;20807;-80
2022/09/22 01:43:02;;;;;;;0.10;0.10;;;8.30;99.90;;;;;;5029410;28;20184;-81
2022/09/22 01:45:30;;;;;;;0.10;0.10;;;8.20;99.90;;;;;;5034282;28;20243;-81
2022/09/22 01:48:18;;;;;;;1.80;0.33;;;8.10;99.90;;;;;;5033273;28;20276;-80
2022/09/22 01:50:59;;;;;;;0.10;0.10;;;8.20;99.90;;;;;;5031915;28;20208;-81
2022/09/22 01:53:30;;;;;;;0.10;0.10;;;8.10;99.90;;;;;;5034317;28;20215;-81
2022/09/22 01:56:03;;;;;;;0.10;0.10;;;8.20;99.90;;;;;;5034592;28;20209;-81
2022/09/22 01:58:33;;;;;;;0.20;0.20;;;8.20;99.90;;;;;;5030578;28;20181;-81
2022/09/22 02:01:07;;;;;;;0.50;0.50;;;8.30;99.90;;;;;;5034500;28;20224;-81
2022/09/22 02:03:43;;;;;;;0.30;0.30;;;8.30;99.90;;;;;;5032630;28;20191;-81
2022/09/22 02:06:22;;;;;;;0.60;0.60;;;8.30;99.90;;;;;;5032302;28;20243;-81
2022/09/22 02:08:52;;;;;;;0.10;0.10;;;8.20;99.90;;;;;;5035136;28;20810;-81
2022/09/22 02:11:17;;;;;;;0.13;0.13;;;8.20;99.90;;;;;;5033462;28;20190;-80
2022/09/22 02:13:45;;;;;;;0.30;0.30;;;8.10;99.90;;;;;;5034085;28;20271;-81
2022/09/22 02:16:13;;;;;;;0.10;0.10;;;8.00;99.90;;;;;;5031068;28;20215;-81
2022/09/22 02:19:15;;;;;;;0.10;0.10;;;7.90;99.90;;;;;;5032724;28;20181;-80
2022/09/22 02:21:44;;;;;;;0.00;0.00;;;7.90;99.90;;;;;;5014597;28;20603;-80
2022/09/22 02:24:31;;;;;;;0.10;0.10;;;7.80;99.90;;;;;;5033495;28;20216;-81
2022/09/22 02:27:00;;;;;;;0.30;0.30;;;7.80;99.90;;;;;;5031619;28;20189;-80
2022/09/22 02:29:30;;;;;;;0.57;0.50;;;7.80;99.90;;;;;;5032566;28;21153;-81
2022/09/22 02:31:58;;;;;;;0.10;0.10;;;7.80;99.90;;;;;;5033873;28;20184;-81
2022/09/22 02:34:23;;;;;;;0.60;0.37;;;7.80;99.90;;;;;;5034436;28;20224;-81
2022/09/22 02:37:15;;;;;;;0.33;0.20;;;7.70;99.90;;;;;;5033747;28;20183;-81
2022/09/22 02:39:44;;;;;;;0.10;0.10;;;7.80;99.90;;;;;;5031868;28;20218;-80
2022/09/22 02:42:16;;;;;;;0.10;0.10;;;7.80;99.90;;;;;;5035813;28;20234;-80
2022/09/22 02:45:17;;;;;;;0.20;0.20;;;7.80;99.90;;;;;;5033894;28;20205;-81
2022/09/22 02:47:58;;;;;;;0.10;0.10;;;7.80;99.90;;;;;;5013912;28;20612;-80
2022/09/22 02:50:26;;;;;;;0.10;0.10;;;7.80;99.90;;;;;;5030819;28;20289;-80
2022/09/22 02:52:56;;;;;;;0.10;0.10;;;7.80;99.90;;;;;;5031368;28;20199;-80
2022/09/22 02:55:21;;;;;;;0.23;0.23;;;7.90;99.90;;;;;;5030732;28;20225;-81
2022/09/22 02:57:47;;;;;;;0.40;0.20;;;7.90;99.90;;;;;;5031665;28;20191;-80
2022/09/22 03:00:13;;;;;;;0.30;0.30;;;7.90;99.90;;;;;;5033456;28;20242;-80
2022/09/22 03:02:39;;;;;;;0.20;0.20;;;8.00;99.90;;;;;;5030672;28;20179;-81
2022/09/22 03:05:05;;;;;;;0.10;0.10;;;8.00;99.90;;;;;;5031843;28;20209;-81
2022/09/22 03:07:31;;;;;;;0.13;0.10;;;7.90;99.90;;;;;;5029251;28;20218;-80
2022/09/22 03:09:57;;;;;;;0.17;0.17;;;8.00;99.90;;;;;;5031634;28;20225;-81
2022/09/22 03:12:22;;;;;;;0.10;0.10;;;8.00;99.90;;;;;;5031056;28;20657;-81
2022/09/22 03:14:49;;;;;;;0.47;0.43;;;8.00;99.90;;;;;;5032301;28;20208;-81
2022/09/22 03:17:14;;;;;;;0.30;0.30;;;7.90;99.90;;;;;;5031709;28;20195;-80
2022/09/22 03:19:40;;;;;;;0.10;0.10;;;7.90;99.90;;;;;;5032470;28;20204;-80
2022/09/22 03:22:05;;;;;;;0.10;0.10;;;7.90;99.90;;;;;;5031307;28;20195;-81
2022/09/22 03:24:31;;;;;;;0.20;0.20;;;7.90;99.90;;;;;;5031894;28;20384;-81
2022/09/22 03:26:57;;;;;;;0.13;0.13;;;7.80;99.90;;;;;;5031011;28;20186;-81
2022/09/22 03:29:22;;;;;;;0.10;0.10;;;7.80;99.90;;;;;;5032717;28;20717;-80
2022/09/22 03:31:48;;;;;;;0.20;0.20;;;7.80;99.90;;;;;;5032562;28;20288;-80
2022/09/22 03:34:13;;;;;;;0.13;0.13;;;7.90;99.90;;;;;;5031934;28;20216;-81
2022/09/22 03:36:39;;;;;;;0.20;0.20;;;8.00;99.90;;;;;;5030275;28;20202;-81
2022/09/22 03:39:04;;;;;;;0.27;0.20;;;8.00;99.90;;;;;;5033021;28;20757;-80
2022/09/22 03:41:30;;;;;;;0.13;0.13;;;8.00;99.90;;;;;;5030701;28;20199;-80
2022/09/22 03:43:56;;;;;;;0.20;0.20;;;8.00;99.90;;;;;;5032995;28;20178;-81
2022/09/22 03:46:21;;;;;;;0.10;0.10;;;8.10;99.90;;;;;;5033192;28;20564;-80
2022/09/22 03:48:47;;;;;;;0.20;0.20;;;8.10;99.90;;;;;;5032343;28;20188;-81
2022/09/22 03:51:12;;;;;;;0.20;0.20;;;8.10;99.90;;;;;;5030683;28;20206;-80
2022/09/22 03:53:38;;;;;;;0.10;0.10;;;8.20;99.90;;;;;;5030688;28;20259;-81
2022/09/22 03:56:06;;;;;;;0.10;0.10;;;8.10;99.90;;;;;;5028764;28;20217;-81
2022/09/22 03:58:31;;;;;;;0.13;0.13;;;8.10;99.90;;;;;;5031712;28;20979;-81
2022/09/22 04:00:57;;;;;;;0.03;0.03;;;8.10;99.90;;;;;;5033389;28;20196;-80
2022/09/22 04:03:23;;;;;;;0.10;0.10;;;8.10;99.90;;;;;;5032085;28;20182;-81
2022/09/22 04:05:50;;;;;;;0.10;0.10;;;7.80;99.90;;;;;;5028169;28;20212;-80
2022/09/22 04:08:16;;;;;;;0.07;0.07;;;7.80;99.90;;;;;;5031009;28;20678;-81
2022/09/22 04:10:44;;;;;;;0.20;0.20;;;7.90;99.90;;;;;;5029658;28;20384;-81
2022/09/22 04:13:10;;;;;;;0.10;0.10;;;7.90;99.90;;;;;;5030427;28;20186;-81
2022/09/22 04:15:35;;;;;;;0.10;0.10;;;7.80;99.90;;;;;;5029936;28;20222;-81
2022/09/22 04:18:01;;;;;;;0.10;0.10;;;7.80;99.90;;;;;;5030356;28;20186;-80
2022/09/22 04:20:26;;;;;;;0.10;0.10;;;7.90;99.90;;;;;;5029979;28;20197;-81
2022/09/22 04:22:52;;;;;;;0.73;0.20;;;7.80;99.90;;;;;;5031154;28;20281;-81
2022/09/22 04:25:18;;;;;;;0.20;0.20;;;7.90;99.90;;;;;;5043978;28;20219;-81
2022/09/22 04:27:43;;;;;;;0.10;0.10;;;7.90;99.90;;;;;;5030266;28;20188;-81
2022/09/22 04:30:09;;;;;;;0.10;0.10;;;7.90;99.90;;;;;;5028563;28;20694;-80
2022/09/22 04:32:35;;;;;;;0.20;0.20;;;7.90;99.90;;;;;;5032428;28;20195;-81
2022/09/22 04:35:00;;;;;;;0.10;0.10;;;7.80;99.90;;;;;;5029643;28;20219;-81
2022/09/22 04:37:26;;;;;;;0.40;0.40;;;7.80;99.90;;;;;;5032693;28;20203;-81
2022/09/22 04:39:53;;;;;;;0.30;0.30;;;7.80;99.90;;;;;;5030744;28;20206;-81
2022/09/22 04:42:19;;;;;;;0.10;0.10;;;7.70;99.90;;;;;;5026902;28;20192;-81
2022/09/22 04:44:45;;;;;;;0.33;0.33;;;7.70;99.90;;;;;;5030951;28;20206;-81
2022/09/22 04:47:11;;;;;;;0.10;0.10;;;7.70;99.90;;;;;;5026376;28;20209;-80
2022/09/22 04:49:37;;;;;;;0.10;0.10;;;7.80;99.90;;;;;;5031120;28;20650;-80
2022/09/22 04:52:03;;;;;;;0.10;0.10;;;7.80;99.90;;;;;;5031499;28;20209;-80
2022/09/22 04:54:29;;;;;;;0.10;0.10;;;7.80;99.90;;;;;;5032001;28;20293;-80
2022/09/22 04:56:54;;;;;;;0.27;0.27;;;7.60;99.90;;;;;;5032092;28;20804;-80
2022/09/22 04:59:20;;;;;;;0.10;0.10;;;7.50;99.90;;;;;;5029103;28;20228;-80
2022/09/22 05:01:45;;;;;;;0.30;0.30;;;7.60;99.90;;;;;;5030060;28;20184;-80
2022/09/22 05:04:11;;;;;;;0.00;0.00;;;7.60;99.90;;;;;;5028550;28;20701;-80
2022/09/22 05:06:36;;;;;;;0.27;0.27;;;7.70;99.90;;;;;;5028288;28;20174;-80
2022/09/22 05:09:02;;;;;;;0.10;0.10;;;7.70;99.90;;;;;;5028545;28;20212;-80
2022/09/22 05:11:29;;;;;;;0.10;0.10;;;7.70;99.90;;;;;;5029419;28;20186;-80
2022/09/22 05:13:56;;;;;;;0.10;0.10;;;7.80;99.90;;;;;;5029607;28;20546;-81
2022/09/22 05:16:22;;;;;;;0.10;0.10;;;7.80;99.90;;;;;;5031474;28;20968;-81
2022/09/22 05:18:49;;;;;;;0.20;0.20;;;7.80;99.90;;;;;;5033438;28;20220;-80
2022/09/22 05:21:16;;;;;;;0.30;0.30;;;7.90;99.90;;;;;;5034167;28;20191;-80
2022/09/22 05:23:42;;;;;;;0.10;0.10;;;7.90;99.90;;;;;;5030269;28;20264;-81
2022/09/22 05:26:08;;;;;;;0.10;0.10;;;7.90;99.90;;;;;;5031853;28;20213;-81
2022/09/22 05:28:33;;;;;;;0.10;0.10;;;8.00;99.90;;;;;;5034260;28;20191;-80
2022/09/22 05:30:59;;;;;;;0.70;0.70;;;8.00;99.90;;;;;;5032188;28;20186;-80
2022/09/22 05:33:25;;;;;;;0.20;0.20;;;8.00;99.90;;;;;;5034987;28;20190;-80
2022/09/22 05:35:50;;;;;;;0.37;0.37;;;8.00;99.90;;;;;;5030077;28;20210;-80
2022/09/22 05:38:16;;;;;;;0.10;0.10;;;8.00;99.90;;;;;;5033649;28;20191;-82
2022/09/22 05:40:45;;;;;;;0.20;0.10;;;8.10;99.90;;;;;;5032978;28;20179;-80
2022/09/22 05:43:11;;;;;;;0.20;0.20;;;8.20;99.90;;;;;;5035948;28;20205;-82
2022/09/22 05:45:37;;;;;;;2.23;0.20;;;8.30;99.90;;;;;;5035442;28;20234;-81
2022/09/22 05:48:03;;;;;;;0.10;0.10;;;8.40;99.90;;;;;;5037620;28;20193;-81
2022/09/22 05:50:28;;;;;;;0.33;0.33;;;8.50;99.90;;;;;;5030862;28;20207;-80
2022/09/22 05:53:08;;;;;;;0.10;0.10;;;8.60;99.90;;;;;;5036685;28;20201;-80
2022/09/22 05:55:34;;;;;;;0.40;0.40;;;8.60;99.90;;;;;;5034062;28;20591;-82
2022/09/22 05:58:01;;;;;;;0.37;0.37;;;8.70;99.90;;;;;;5031619;28;20693;-81
2022/09/22 06:00:27;;;;;;;0.30;0.20;;;8.80;99.90;;;;;;5034416;28;20245;-80
2022/09/22 06:02:53;;;;;;;0.30;0.30;;;8.90;99.90;;;;;;5034095;28;20186;-80
2022/09/22 06:05:19;;;;;;;0.23;0.23;;;9.00;99.90;;;;;;5025530;28;20654;-81
2022/09/22 06:07:45;;;;;;;0.10;0.10;;;9.10;99.90;;;;;;5034611;28;20183;-80
2022/09/22 06:10:11;;;;;;;0.30;0.30;;;9.20;99.90;;;;;;5034410;28;20738;-81
2022/09/22 06:12:37;;;;;;;0.40;0.40;;;9.30;99.90;;;;;;5032969;28;20606;-81
2022/09/22 06:15:04;;;;;;;0.67;0.30;;;9.40;99.90;;;;;;5034414;28;20213;-80
2022/09/22 06:17:30;;;;;;;0.20;0.20;;;9.40;99.90;;;;;;5034059;28;20179;-80
2022/09/22 06:19:55;;;;;;;0.53;0.53;;;9.40;99.90;;;;;;5034363;28;20184;-80
2022/09/22 06:22:23;;;;;;;0.20;0.20;;;9.50;99.90;;;;;;5032565;28;21528;-81
2022/09/22 06:24:49;;;;;;;1.13;0.90;;;9.60;99.90;;;;;;5035286;28;20204;-80
2022/09/22 06:27:15;;;;;;;0.73;0.73;;;9.60;99.90;;;;;;5032407;28;20197;-80
2022/09/22 06:29:41;;;;;;;0.20;0.20;;;9.70;99.90;;;;;;5033901;28;20668;-80
2022/09/22 06:32:07;;;;;;;0.27;0.27;;;9.80;99.90;;;;;;5031024;28;20606;-80
2022/09/22 06:34:34;;;;;;;0.23;0.23;;;10.00;99.90;;;;;;5034350;28;20207;-80
2022/09/22 06:37:01;;;;;;;0.33;0.33;;;10.10;99.90;;;;;;5033409;28;20181;-81
2022/09/22 06:39:26;;;;;;;0.20;0.20;;;10.10;99.90;;;;;;5033036;28;20188;-79
2022/09/22 06:41:55;;;;;;;0.10;0.10;;;10.20;99.90;;;;;;5032609;28;20611;-80
2022/09/22 06:44:21;;;;;;;0.20;0.20;;;10.30;99.90;;;;;;5032357;28;20283;-80
2022/09/22 06:46:46;;;;;;;0.10;0.10;;;10.40;99.90;;;;;;5031058;28;20176;-80
2022/09/22 06:49:12;;;;;;;0.23;0.23;;;10.50;99.90;;;;;;5028119;28;20198;-79
2022/09/22 06:51:38;;;;;;;0.20;0.20;;;10.70;99.90;;;;;;5030886;28;20663;-80
2022/09/22 06:54:05;;;;;;;0.10;0.10;;;10.90;99.90;;;;;;5029066;28;20686;-79
2022/09/22 06:56:41;;;;;;;0.47;0.47;;;11.00;99.90;;;;;;5031347;28;20212;-80
2022/09/22 06:59:09;;;;;;;0.70;0.23;;;11.00;99.90;;;;;;5030152;28;20208;-80
2022/09/22 07:01:35;;;;;;;0.63;0.60;;;11.00;99.90;;;;;;5033610;28;20319;-80
2022/09/22 07:04:01;;;;;;;0.20;0.20;;;11.10;99.90;;;;;;5033265;28;20261;-80
2022/09/22 07:06:26;;;;;;;0.40;0.40;;;11.30;99.90;;;;;;5031734;28;20328;-80
2022/09/22 07:08:52;;;;;;;0.10;0.10;;;11.40;99.90;;;;;;5033326;28;20202;-81
2022/09/22 07:11:22;;;;;;;0.63;0.63;;;11.60;99.90;;;;;;5034955;28;20193;-80
2022/09/22 07:13:49;;;;;;;0.10;0.10;;;11.80;99.90;;;;;;5034736;28;20228;-80
2022/09/22 07:16:16;;;;;;;0.30;0.30;;;12.00;99.90;;;;;;5030779;28;20212;-80
2022/09/22 07:19:00;;;;;;;0.10;0.10;;;12.20;99.90;;;;;;5033216;28;20196;-80
2022/09/22 07:21:28;;;;;;;0.23;0.20;;;12.50;99.90;;;;;;5035823;28;20192;-80
2022/09/22 07:23:55;;;;;;;0.47;0.47;;;12.70;99.90;;;;;;5033417;28;20220;-80
2022/09/22 07:26:25;;;;;;;0.40;0.40;;;12.80;99.90;;;;;;5031102;28;20196;-81
2022/09/22 07:28:57;;;;;;;0.20;0.20;;;12.90;99.90;;;;;;5033961;28;20188;-81
2022/09/22 07:31:23;;;;;;;0.20;0.20;;;13.10;99.90;;;;;;5033564;28;20185;-80
2022/09/22 07:33:48;;;;;;;0.10;0.10;;;13.30;99.90;;;;;;5034051;28;20721;-81
2022/09/22 07:36:17;;;;;;;0.10;0.10;;;13.40;99.90;;;;;;5030019;28;20220;-80
2022/09/22 07:38:48;;;;;;;0.30;0.30;;;13.40;99.90;;;;;;5032459;28;20193;-80
2022/09/22 07:41:17;;;;;;;0.10;0.10;;;13.50;99.90;;;;;;5028749;28;20261;-80
2022/09/22 07:43:43;;;;;;;0.20;0.20;;;13.70;99.90;;;;;;5030151;28;20190;-81
2022/09/22 07:46:09;;;;;;;0.10;0.10;;;14.00;99.90;;;;;;5028293;28;20202;-80
2022/09/22 07:48:36;;;;;;;0.20;0.20;;;14.10;99.90;;;;;;5030519;28;20192;-80
2022/09/22 07:51:07;;;;;;;1.10;0.30;;;14.20;99.90;;;;;;5030303;28;20695;-81
2022/09/22 07:53:34;;;;;;;3.30;0.27;;;14.30;99.90;;;;;;5023254;28;20190;-81
2022/09/22 07:56:12;;;;;;;0.37;0.37;;;14.30;99.90;;;;;;5031071;28;20994;-80
2022/09/22 07:58:46;;;;;;;0.47;0.47;;;14.40;99.90;;;;;;5028736;28;20174;-80
2022/09/22 08:01:12;;;;;;;0.30;0.30;;;14.40;99.90;;;;;;5027719;28;20376;-81
2022/09/22 08:03:38;;;;;;;0.10;0.10;;;14.60;99.90;;;;;;5032876;28;20180;-80
2022/09/22 08:06:10;;;;;;;0.23;0.23;;;14.80;99.90;;;;;;5021367;28;20989;-80
2022/09/22 08:08:45;;;;;;;0.20;0.20;;;14.40;99.90;;;;;;5023377;28;20867;-80
2022/09/22 08:11:13;;;;;;;0.30;0.30;;;14.40;99.90;;;;;;5024234;28;20253;-81
2022/09/22 08:13:41;;;;;;;0.30;0.30;;;14.70;99.90;;;;;;5029399;28;20186;-82
2022/09/22 08:16:06;;;;;;;0.30;0.30;;;14.30;99.90;;;;;;5029831;28;20289;-81
2022/09/22 08:18:35;;;;;;;0.30;0.30;;;14.50;99.90;;;;;;5026771;28;20861;-81
2022/09/22 08:21:00;;;;;;;6.20;0.80;;;14.60;99.90;;;;;;5029376;28;20274;-81
2022/09/22 08:23:28;;;;;;;0.53;0.40;;;14.60;99.90;;;;;;5028095;28;20269;-83
2022/09/22 08:25:55;;;;;;;0.20;0.20;;;14.70;99.90;;;;;;5023499;28;20281;-86
2022/09/22 08:28:21;;;;;;;0.20;0.20;;;15.00;99.90;;;;;;5025427;28;20556;-81
2022/09/22 08:30:47;;;;;;;0.60;0.53;;;15.10;99.90;;;;;;5030011;28;20189;-81
2022/09/22 08:33:13;;;;;;;2.47;0.40;;;15.20;99.90;;;;;;5028142;28;20708;-80
2022/09/22 08:36:02;;;;;;;0.30;0.30;;;15.50;99.90;;;;;;5030595;28;20218;-82
2022/09/22 08:38:29;;;;;;;1.00;0.40;;;15.80;99.90;;;;;;5025664;28;20642;-81
2022/09/22 08:41:04;;;;;;;0.63;0.30;;;15.60;99.90;;;;;;5027338;28;20181;-82
2022/09/22 08:43:31;;;;;;;0.30;0.30;;;16.00;99.90;;;;;;5028846;28;20208;-82
2022/09/22 08:45:57;;;;;;;0.20;0.20;;;15.80;99.90;;;;;;5030661;28;20223;-81
2022/09/22 08:54:07;;;;;;;0.40;0.40;;;15.90;99.90;;;;;;5033774;28;20219;-80
2022/09/22 08:56:56;;;;;;;0.30;0.30;;;16.50;99.90;;;;;;5031404;28;20212;-81
2022/09/22 08:59:23;;;;;;;0.17;0.17;;;16.50;99.90;;;;;;5032144;28;20187;-81
2022/09/22 09:02:01;;;;;;;0.20;0.20;;;16.80;99.90;;;;;;5037415;28;20173;-81
2022/09/22 09:05:17;;;;;;;0.10;0.10;;;17.00;99.90;;;;;;5036375;28;20229;-81
2022/09/22 09:08:04;;;;;;;0.10;0.10;;;17.10;99.90;;;;;;4988004;28;20192;-81
2022/09/22 09:11:06;;;;;;;1.70;0.40;;;17.30;99.90;;;;;;4994723;28;20636;-81
2022/09/22 09:13:56;;;;;;;0.10;0.10;;;17.50;99.90;;;;;;5032598;28;20196;-81
2022/09/22 09:16:40;;;;;;;1.17;0.20;;;17.60;99.90;;;;;;5031547;28;20204;-81
2022/09/22 09:19:17;;;;;;;0.20;0.20;;;17.80;99.90;;;;;;5033849;28;20557;-81
2022/09/22 09:21:49;;;;;;;0.30;0.30;;;18.00;99.90;;;;;;5033826;28;20552;-80
2022/09/22 09:24:27;;;;;;;0.80;0.40;;;17.90;99.90;;;;;;5032900;28;20197;-81
2022/09/22 09:26:57;;;;;;;0.27;0.27;;;17.90;99.90;;;;;;5033713;28;20293;-81
2022/09/22 09:29:26;;;;;;;0.30;0.30;;;17.20;99.90;;;;;;5031198;28;20608;-81
2022/09/22 09:31:55;;;;;;;0.20;0.20;;;17.40;99.90;;;;;;5035354;28;20646;-81
2022/09/22 09:34:27;;;;;;;0.20;0.20;;;17.80;99.90;;;;;;5032817;28;20699;-81
2022/09/22 09:37:01;;;;;;;0.30;0.30;;;17.10;99.90;;;;;;5033172;28;20220;-82
2022/09/22 09:39:31;;;;;;;0.20;0.20;;;17.50;99.90;;;;;;5032511;28;20191;-82
2022/09/22 09:41:59;;;;;;;0.30;0.30;;;17.50;99.90;;;;;;5030036;28;20185;-82
2022/09/22 09:44:31;;;;;;;0.40;0.20;;;17.90;99.90;;;;;;5030268;28;20260;-81
2022/09/22 09:47:04;;;;;;;0.33;0.33;;;18.20;99.90;;;;;;5031452;28;20197;-81
2022/09/22 09:49:30;;;;;;;0.20;0.20;;;18.20;99.90;;;;;;5031432;28;20265;-81
2022/09/22 09:51:59;;;;;;;0.50;0.50;;;18.50;99.90;;;;;;5029276;28;20391;-82
2022/09/22 09:54:29;;;;;;;2.23;0.40;;;18.50;99.90;;;;;;5031801;28;20218;-82
2022/09/22 09:57:16;;;;;;;0.10;0.10;;;18.40;99.90;;;;;;5033855;28;20166;-82
2022/09/22 10:02:34;;;;;;;0.20;0.20;;;18.10;99.90;;;;;;5037412;28;20229;-82
2022/09/22 10:05:19;;;;;;;0.80;0.80;;;18.40;99.90;;;;;;5034277;28;20210;-82
2022/09/22 10:07:48;;;;;;;0.43;0.43;;;18.60;99.90;;;;;;5034238;28;20186;-81
2022/09/22 10:10:36;;;;;;;0.30;0.30;;;18.50;99.90;;;;;;5032835;28;20186;-82
2022/09/22 10:13:41;;;;;;;0.30;0.30;;;18.10;99.90;;;;;;5033768;28;20178;-82
2022/09/22 10:16:27;;;;;;;0.30;0.30;;;18.20;99.90;;;;;;5029133;28;20232;-81
2022/09/22 10:19:18;;;;;;;0.30;0.30;;;18.60;99.90;;;;;;5035043;28;20182;-81
2022/09/22 10:21:44;;;;;;;0.17;0.17;;;18.60;99.90;;;;;;5032238;28;20249;-81
2022/09/22 10:24:30;;;;;;;0.30;0.30;;;18.30;99.90;;;;;;5032264;28;20183;-80
2022/09/22 10:26:56;;;;;;;0.13;0.13;;;18.70;99.90;;;;;;5030766;28;20182;-81
2022/09/22 10:29:22;;;;;;;0.30;0.30;;;19.00;99.90;;;;;;5033232;28;20263;-80
2022/09/22 10:32:05;;;;;;;0.27;0.27;;;19.10;99.90;;;;;;5032757;28;20610;-80
2022/09/22 10:34:30;;;;;;;0.53;0.30;;;19.10;99.90;;;;;;5031799;28;20229;-80
2022/09/22 10:36:58;;;;;;;0.20;0.20;;;18.70;99.90;;;;;;5032467;28;20727;-80
2022/09/22 10:39:43;;;;;;;1.03;0.30;;;18.80;99.90;;;;;;5028018;28;20198;-80
2022/09/22 10:42:27;;;;;;;0.30;0.30;;;18.80;99.90;;;;;;5029824;28;20702;-80
2022/09/22 10:44:58;;;;;;;0.10;0.10;;;19.20;99.90;;;;;;5030769;28;20236;-80
2022/09/22 10:47:42;;;;;;;2.47;0.40;;;19.10;99.90;;;;;;5031797;28;20190;-80
2022/09/22 10:50:40;;;;;;;0.23;0.23;;;19.00;99.90;;;;;;5032327;28;20718;-81
2022/09/22 10:53:26;;;;;;;0.30;0.30;;;18.80;99.90;;;;;;5033558;28;20186;-81
2022/09/22 10:55:55;;;;;;;0.10;0.10;;;18.40;99.90;;;;;;5030756;28;20307;-81
2022/09/22 10:58:58;;;;;;;0.20;0.20;;;18.90;99.90;;;;;;5029312;28;20706;-80
2022/09/22 11:01:40;;;;;;;0.20;0.20;;;19.20;99.90;;;;;;5031226;28;20186;-80
2022/09/22 11:04:37;;;;;;;0.20;0.20;;;18.90;99.90;;;;;;5031480;28;20186;-81
2022/09/22 11:13:12;;;;;;;0.20;0.20;;;19.70;99.90;;;;;;5031312;28;20559;-80
2022/09/22 11:16:08;;;;;;;0.20;0.20;;;18.30;99.90;;;;;;5031927;28;20213;-81
2022/09/22 11:18:54;;;;;;;0.30;0.30;;;18.70;99.90;;;;;;5031750;28;20218;-80
2022/09/22 11:21:53;;;;;;;0.23;0.23;;;18.70;99.90;;;;;;5030150;28;20200;-81
2022/09/22 11:24:44;;;;;;;0.30;0.30;;;19.20;99.90;;;;;;5031469;28;20321;-80
2022/09/22 11:27:44;;;;;;;0.60;0.60;;;18.60;99.90;;;;;;5031258;28;20289;-80
2022/09/22 11:30:20;;;;;;;0.40;0.40;;;18.80;99.90;;;;;;5026223;28;20202;-80
2022/09/22 11:33:15;;;;;;;0.40;0.40;;;18.80;99.90;;;;;;5030243;28;20178;-81
2022/09/22 11:36:04;;;;;;;0.20;0.20;;;19.00;99.90;;;;;;5030642;28;20245;-80
2022/09/22 11:38:42;;;;;;;0.27;0.27;;;19.00;99.90;;;;;;5030182;28;20182;-80
2022/09/22 11:41:33;;;;;;;0.47;0.40;;;19.40;99.90;;;;;;5032193;28;20312;-80
2022/09/22 11:44:30;;;;;;;1.43;0.23;;;19.70;99.90;;;;;;5047522;28;20241;-80
2022/09/22 11:47:13;;;;;;;0.20;0.20;;;18.90;99.90;;;;;;5030379;28;20293;-81
2022/09/22 11:49:58;;;;;;;0.13;0.13;;;18.80;99.90;;;;;;5031628;28;20186;-80
2022/09/22 11:52:49;;;;;;;0.30;0.30;;;19.40;99.90;;;;;;5032083;28;20543;-81
2022/09/22 11:55:31;;;;;;;0.30;0.30;;;19.50;99.90;;;;;;5030198;28;20213;-80
2022/09/22 11:58:01;;;;;;;0.10;0.10;;;19.20;99.90;;;;;;5031663;28;20203;-81
2022/09/22 12:00:38;;;;;;;0.40;0.40;;;19.40;99.90;;;;;;5029267;28;20727;-80
2022/09/22 12:03:15;;;;;;;0.33;0.33;;;19.20;99.90;;;;;;5032970;28;20190;-80
2022/09/22 12:05:51;;;;;;;0.20;0.20;;;19.60;99.90;;;;;;5028828;28;20206;-81
2022/09/22 12:08:21;;;;;;;0.20;0.20;;;19.90;99.90;;;;;;5030320;28;20223;-80
2022/09/22 12:10:48;;;;;;;0.67;0.30;;;19.90;99.90;;;;;;5028728;28;20183;-80
2022/09/22 12:13:26;;;;;;;0.30;0.30;;;19.90;99.90;;;;;;5031385;28;20212;-81
2022/09/22 12:16:19;;;;;;;1.13;0.57;;;19.60;99.90;;;;;;5028197;28;20233;-81
2022/09/22 12:18:52;;;;;;;0.17;0.17;;;19.90;99.90;;;;;;5031209;28;20176;-80
2022/09/22 12:21:33;;;;;;;0.40;0.40;;;19.70;99.90;;;;;;5032172;28;20181;-83
2022/09/22 12:24:01;;;;;;;1.23;0.50;;;18.80;99.90;;;;;;5027221;28;20213;-80
2022/09/22 12:26:32;;;;;;;0.33;0.33;;;18.90;99.90;;;;;;5029059;28;20192;-81
2022/09/22 12:29:00;;;;;;;0.10;0.10;;;19.20;99.90;;;;;;5046411;28;20189;-81
2022/09/22 12:31:34;;;;;;;0.10;0.10;;;19.60;99.90;;;;;;5029975;28;20683;-80
2022/09/22 12:34:02;;;;;;;0.10;0.10;;;20.00;99.90;;;;;;5032274;28;20512;-80
2022/09/22 12:36:35;;;;;;;2.37;0.40;;;20.20;99.90;;;;;;5033148;28;20220;-80
2022/09/22 12:39:19;;;;;;;0.40;0.40;;;20.00;99.90;;;;;;5030234;28;20183;-81
2022/09/22 12:41:48;;;;;;;0.40;0.40;;;19.60;99.90;;;;;;5030186;28;20170;-81
2022/09/22 12:44:21;;;;;;;0.43;0.37;;;19.40;99.90;;;;;;5031375;28;20178;-81
2022/09/22 12:46:48;;;;;;;0.20;0.20;;;19.50;99.90;;;;;;5031051;28;20659;-81
2022/09/22 12:49:21;;;;;;;0.20;0.20;;;19.60;99.90;;;;;;5030719;28;20190;-81
2022/09/22 12:51:51;;;;;;;0.10;0.10;;;19.20;99.90;;;;;;5028877;28;20198;-81
2022/09/22 12:54:23;;;;;;;0.20;0.20;;;19.50;99.90;;;;;;5031262;28;20205;-81
2022/09/22 12:57:01;;;;;;;0.20;0.20;;;19.50;99.90;;;;;;5030432;28;20688;-81
2022/09/22 12:59:38;;;;;;;2.97;0.40;;;19.70;99.90;;;;;;5031278;28;20225;-81
2022/09/22 13:02:29;;;;;;;0.43;0.20;;;20.00;99.90;;;;;;5030890;28;20259;-81
2022/09/22 13:04:55;;;;;;;0.13;0.13;;;20.30;99.90;;;;;;5024383;28;20301;-82
2022/09/22 13:07:37;;;;;;;0.10;0.10;;;20.50;99.90;;;;;;5030081;28;20297;-81
2022/09/22 13:10:23;;;;;;;0.50;0.50;;;20.70;99.90;;;;;;5030672;28;20190;-82
2022/09/22 13:13:01;;;;;;;0.40;0.40;;;19.40;99.90;;;;;;5030134;28;20195;-80
2022/09/22 13:15:53;;;;;;;0.30;0.30;;;19.10;99.90;;;;;;5029334;28;20217;-80
2022/09/22 13:18:37;;;;;;;0.30;0.30;;;19.00;99.90;;;;;;5002626;28;20230;-80
2022/09/22 13:21:21;;;;;;;0.23;0.23;;;18.90;99.90;;;;;;5031731;28;20646;-81
2022/09/22 13:23:53;;;;;;;0.20;0.20;;;18.90;99.90;;;;;;5030115;28;20671;-80
2022/09/22 13:26:25;;;;;;;0.30;0.30;;;19.10;99.90;;;;;;5029643;28;20286;-80
2022/09/22 13:29:11;;;;;;;0.30;0.30;;;19.40;99.90;;;;;;5030703;28;20214;-80
2022/09/22 13:31:39;;;;;;;0.20;0.20;;;19.60;99.90;;;;;;5028897;28;20220;-80
2022/09/22 13:34:27;;;;;;;0.30;0.30;;;19.80;99.90;;;;;;5029185;28;20210;-81